Time;durP1;ratioP1;P1;durP2;ratioP2;P2;SDS_P1;SDS_P2;PMS_P1;PMS_P2;Temp;Humidity;BMP_temperature;BMP_pressure;BME280_temperature;BME280_humidity;BME280_pressure;Samples;Min_cycle;Max_cycle;Signal;HPM_P1;HPM_P2
2022/03/14 00:00:19;;;;;;;19.10;12.45;;;;;;;;;;4840871;29;20069;-81
2022/03/14 00:02:46;;;;;;;19.23;12.43;;;;;;;;;;4856326;29;20057;-79
2022/03/14 00:05:15;;;;;;;16.92;12.40;;;;;;;;;;4839563;29;20053;-80
2022/03/14 00:07:42;;;;;;;17.85;12.60;;;;;;;;;;4828735;29;20473;-78
2022/03/14 00:10:09;;;;;;;20.63;12.30;;;;;;;;;;4841387;29;20497;-80
2022/03/14 00:12:36;;;;;;;19.88;12.85;;;;;;;;;;4829250;29;20065;-79
2022/03/14 00:15:07;;;;;;;17.42;12.88;;;;;;;;;;4840574;29;20059;-78
2022/03/14 00:17:33;;;;;;;19.10;12.48;;;;;;;;;;4857158;29;20069;-80
2022/03/14 00:20:07;;;;;;;17.95;11.90;;;;;;;;;;4840215;29;20067;-77
2022/03/14 00:22:34;;;;;;;19.83;13.05;;;;;;;;;;4857621;29;20131;-78
2022/03/14 00:25:00;;;;;;;18.40;12.25;;;;;;;;;;4842978;29;20048;-77
2022/03/14 00:27:27;;;;;;;18.65;12.95;;;;;;;;;;4857194;29;20507;-77
2022/03/14 00:29:53;;;;;;;17.52;12.02;;;;;;;;;;4858834;29;20100;-81
2022/03/14 00:32:19;;;;;;;15.98;11.98;;;;;;;;;;4841861;29;20064;-82
2022/03/14 00:34:45;;;;;;;15.70;12.45;;;;;;;;;;4843958;29;20056;-80
2022/03/14 00:37:11;;;;;;;17.90;12.98;;;;;;;;;;4841521;29;20052;-84
2022/03/14 00:39:37;;;;;;;17.13;12.40;;;;;;;;;;4829490;29;20515;-81
2022/03/14 00:42:03;;;;;;;19.48;12.77;;;;;;;;;;4839267;29;20417;-86
2022/03/14 00:44:30;;;;;;;15.82;11.80;;;;;;;;;;4856640;29;20053;-81
2022/03/14 00:46:57;;;;;;;19.52;12.95;;;;;;;;;;4845176;29;20045;-81
2022/03/14 00:49:23;;;;;;;17.17;12.40;;;;;;;;;;4841386;29;20094;-80
2022/03/14 00:51:49;;;;;;;18.55;13.05;;;;;;;;;;4841792;29;20463;-81
2022/03/14 00:54:16;;;;;;;16.95;11.98;;;;;;;;;;4841706;29;20061;-81
2022/03/14 00:56:42;;;;;;;20.48;13.63;;;;;;;;;;4855249;29;20179;-81
2022/03/14 00:59:08;;;;;;;18.88;13.70;;;;;;;;;;4844041;29;20041;-82
2022/03/14 01:01:34;;;;;;;17.98;13.63;;;;;;;;;;4842940;29;21084;-80
2022/03/14 01:04:00;;;;;;;18.02;13.52;;;;;;;;;;4840501;29;20053;-81
2022/03/14 01:06:27;;;;;;;17.80;13.60;;;;;;;;;;4855726;29;20091;-81
2022/03/14 01:08:54;;;;;;;18.38;13.52;;;;;;;;;;4842126;29;20062;-82
2022/03/14 01:11:20;;;;;;;17.92;12.45;;;;;;;;;;4842029;29;20426;-81
2022/03/14 01:13:46;;;;;;;17.23;12.60;;;;;;;;;;4840405;29;20080;-81
2022/03/14 01:16:12;;;;;;;19.02;13.70;;;;;;;;;;4855856;29;20045;-81
2022/03/14 01:18:38;;;;;;;20.05;13.90;;;;;;;;;;4829737;29;20049;-82
2022/03/14 01:21:04;;;;;;;20.33;13.70;;;;;;;;;;4857078;29;20064;-82
2022/03/14 01:23:30;;;;;;;23.83;13.63;;;;;;;;;;4855374;29;20072;-83
2022/03/14 01:25:56;;;;;;;19.42;13.18;;;;;;;;;;4827883;29;20545;-81
2022/03/14 01:28:22;;;;;;;19.70;13.68;;;;;;;;;;4856967;29;20536;-81
2022/03/14 01:30:48;;;;;;;18.20;13.25;;;;;;;;;;4840568;29;20489;-81
2022/03/14 01:33:14;;;;;;;18.52;13.00;;;;;;;;;;4854027;29;20060;-81
2022/03/14 01:35:41;;;;;;;19.88;13.18;;;;;;;;;;4841003;29;20049;-82
2022/03/14 01:38:08;;;;;;;20.35;12.93;;;;;;;;;;4857251;29;20144;-83
2022/03/14 01:40:34;;;;;;;17.50;12.98;;;;;;;;;;4841555;29;20093;-82
2022/03/14 01:43:00;;;;;;;19.15;13.52;;;;;;;;;;4839590;29;20140;-82
2022/03/14 01:45:26;;;;;;;17.50;13.77;;;;;;;;;;4854001;29;20125;-82
2022/03/14 01:47:52;;;;;;;17.33;12.48;;;;;;;;;;4843568;29;20080;-82
2022/03/14 01:50:19;;;;;;;18.25;13.82;;;;;;;;;;4841904;29;20049;-81
2022/03/14 01:52:45;;;;;;;21.50;12.70;;;;;;;;;;4843017;29;20489;-82
2022/03/14 01:55:13;;;;;;;17.55;13.43;;;;;;;;;;4854193;29;20057;-81
2022/03/14 01:57:39;;;;;;;15.95;12.65;;;;;;;;;;4840159;29;20128;-82
2022/03/14 02:00:06;;;;;;;18.90;13.07;;;;;;;;;;4856421;29;20469;-82
2022/03/14 02:02:32;;;;;;;20.27;13.00;;;;;;;;;;4857095;29;20128;-82
2022/03/14 02:04:58;;;;;;;19.60;12.80;;;;;;;;;;4852979;29;20560;-82
2022/03/14 02:07:25;;;;;;;19.75;12.77;;;;;;;;;;4855537;29;20049;-81
2022/03/14 02:09:51;;;;;;;19.42;12.95;;;;;;;;;;4839611;29;20131;-83
2022/03/14 02:12:18;;;;;;;18.65;12.93;;;;;;;;;;4856310;29;20049;-82
2022/03/14 02:14:44;;;;;;;15.93;12.85;;;;;;;;;;4854398;29;20070;-81
2022/03/14 02:17:12;;;;;;;18.48;13.07;;;;;;;;;;4837190;29;20037;-83
2022/03/14 02:19:39;;;;;;;15.85;12.40;;;;;;;;;;4854370;29;20049;-81
2022/03/14 02:22:05;;;;;;;18.92;12.32;;;;;;;;;;4842297;29;20136;-82
2022/03/14 02:24:31;;;;;;;17.23;12.82;;;;;;;;;;4826531;29;20081;-83
2022/03/14 02:26:57;;;;;;;17.48;12.50;;;;;;;;;;4840613;29;20396;-81
2022/03/14 02:29:24;;;;;;;19.98;12.73;;;;;;;;;;4838647;29;20049;-82
2022/03/14 02:31:51;;;;;;;18.23;12.68;;;;;;;;;;4841171;29;20048;-82
2022/03/14 02:34:17;;;;;;;17.63;12.60;;;;;;;;;;4854885;29;20056;-82
2022/03/14 02:36:43;;;;;;;14.90;12.18;;;;;;;;;;4837962;29;20053;-82
2022/03/14 02:39:09;;;;;;;16.13;12.05;;;;;;;;;;4826796;29;20081;-83
2022/03/14 02:41:36;;;;;;;16.95;11.63;;;;;;;;;;4856003;29;20135;-82
2022/03/14 02:44:06;;;;;;;14.90;12.32;;;;;;;;;;4828841;29;20053;-82
2022/03/14 02:46:34;;;;;;;13.77;11.07;;;;;;;;;;4841853;29;20072;-83
2022/03/14 02:49:00;;;;;;;15.27;11.73;;;;;;;;;;4858568;29;20072;-83
2022/03/14 02:51:26;;;;;;;16.40;11.02;;;;;;;;;;4842422;29;20105;-82
2022/03/14 02:53:57;;;;;;;15.43;11.48;;;;;;;;;;4844299;29;20386;-81
2022/03/14 02:56:23;;;;;;;13.52;10.75;;;;;;;;;;4828107;29;20100;-82
2022/03/14 02:58:51;;;;;;;16.15;11.18;;;;;;;;;;4828505;29;20056;-82
2022/03/14 03:01:18;;;;;;;15.82;11.43;;;;;;;;;;4842340;29;20512;-82
2022/03/14 03:03:44;;;;;;;14.18;11.02;;;;;;;;;;4858607;29;20131;-82
2022/03/14 03:06:12;;;;;;;13.55;10.80;;;;;;;;;;4858931;29;20041;-83
2022/03/14 03:08:39;;;;;;;16.17;11.32;;;;;;;;;;4858471;29;20104;-82
2022/03/14 03:11:08;;;;;;;12.55;10.07;;;;;;;;;;4857801;29;20503;-83
2022/03/14 03:13:35;;;;;;;12.95;9.93;;;;;;;;;;4842385;29;20513;-83
2022/03/14 03:16:01;;;;;;;14.82;10.88;;;;;;;;;;4843786;29;20136;-81
2022/03/14 03:18:27;;;;;;;13.43;10.88;;;;;;;;;;4842499;29;20053;-81
2022/03/14 03:20:53;;;;;;;13.35;10.77;;;;;;;;;;4842420;29;20117;-82
2022/03/14 03:23:19;;;;;;;13.90;10.43;;;;;;;;;;4839202;29;20065;-82
2022/03/14 03:25:45;;;;;;;14.77;11.35;;;;;;;;;;4839529;29;20143;-83
2022/03/14 03:28:11;;;;;;;14.55;11.23;;;;;;;;;;4856503;29;20045;-83
2022/03/14 03:30:38;;;;;;;12.65;10.10;;;;;;;;;;4842750;29;20052;-83
2022/03/14 03:33:04;;;;;;;13.18;10.98;;;;;;;;;;4844754;29;20128;-82
2022/03/14 03:35:30;;;;;;;11.73;9.93;;;;;;;;;;4826739;29;20512;-83
2022/03/14 03:37:56;;;;;;;12.95;10.10;;;;;;;;;;4856430;29;20060;-82
2022/03/14 03:40:22;;;;;;;12.65;10.85;;;;;;;;;;4860185;29;20049;-82
2022/03/14 03:42:48;;;;;;;15.75;10.43;;;;;;;;;;4856910;29;20079;-82
2022/03/14 03:45:15;;;;;;;11.90;9.85;;;;;;;;;;4846148;29;20049;-83
2022/03/14 03:47:41;;;;;;;12.73;9.85;;;;;;;;;;4858307;29;20501;-82
2022/03/14 03:50:07;;;;;;;11.40;9.90;;;;;;;;;;4844434;29;20390;-83
2022/03/14 03:52:33;;;;;;;13.75;10.13;;;;;;;;;;4840411;29;20049;-82
2022/03/14 03:54:59;;;;;;;12.27;9.35;;;;;;;;;;4857909;29;20064;-82
2022/03/14 03:57:26;;;;;;;11.35;9.40;;;;;;;;;;4841760;29;20511;-84
2022/03/14 03:59:52;;;;;;;12.07;9.07;;;;;;;;;;4843896;29;20096;-82
2022/03/14 04:02:19;;;;;;;12.52;9.40;;;;;;;;;;4842821;29;20660;-83
2022/03/14 04:04:52;;;;;;;11.07;8.15;;;;;;;;;;4857366;29;20064;-82
2022/03/14 04:07:19;;;;;;;10.38;8.52;;;;;;;;;;4839939;29;20045;-82
2022/03/14 04:09:47;;;;;;;12.63;8.30;;;;;;;;;;4840711;29;20056;-82
2022/03/14 04:12:13;;;;;;;11.32;7.95;;;;;;;;;;4845250;29;20124;-83
2022/03/14 04:14:39;;;;;;;8.50;7.03;;;;;;;;;;4841654;29;20045;-82
2022/03/14 04:17:07;;;;;;;8.02;6.70;;;;;;;;;;4829360;29;20093;-84
2022/03/14 04:19:38;;;;;;;8.20;6.90;;;;;;;;;;4844765;29;20055;-83
2022/03/14 04:22:04;;;;;;;7.65;6.38;;;;;;;;;;4856841;29;21461;-83
2022/03/14 04:24:30;;;;;;;7.38;6.32;;;;;;;;;;4842375;29;20155;-83
2022/03/14 04:26:57;;;;;;;9.07;6.90;;;;;;;;;;4829797;29;20045;-82
2022/03/14 04:29:23;;;;;;;8.82;6.50;;;;;;;;;;4828199;29;20049;-85
2022/03/14 04:31:49;;;;;;;7.30;6.22;;;;;;;;;;4844753;29;20060;-85
2022/03/14 04:34:15;;;;;;;9.48;6.20;;;;;;;;;;4828667;29;20067;-84
2022/03/14 04:36:41;;;;;;;6.80;5.78;;;;;;;;;;4842379;29;20053;-84
2022/03/14 04:39:07;;;;;;;7.78;5.95;;;;;;;;;;4840297;29;20444;-83
2022/03/14 04:41:35;;;;;;;9.23;5.85;;;;;;;;;;4854177;29;20116;-84
2022/03/14 04:44:01;;;;;;;7.78;5.38;;;;;;;;;;4858999;29;20392;-82
2022/03/14 04:46:27;;;;;;;7.15;5.53;;;;;;;;;;4841562;29;20049;-81
2022/03/14 04:48:53;;;;;;;5.85;5.20;;;;;;;;;;4825818;29;20044;-81
2022/03/14 04:51:20;;;;;;;6.03;5.38;;;;;;;;;;4859679;29;20049;-83
2022/03/14 04:53:46;;;;;;;5.95;4.97;;;;;;;;;;4843189;29;20507;-82
2022/03/14 04:56:12;;;;;;;7.13;4.85;;;;;;;;;;4843627;29;20473;-82
2022/03/14 04:58:38;;;;;;;7.80;5.20;;;;;;;;;;4856564;29;20048;-82
2022/03/14 05:01:04;;;;;;;5.60;4.75;;;;;;;;;;4840808;29;20105;-83
2022/03/14 05:03:30;;;;;;;6.28;4.80;;;;;;;;;;4837878;29;20053;-83
2022/03/14 05:05:57;;;;;;;5.57;4.70;;;;;;;;;;4839192;29;20462;-83
2022/03/14 05:08:23;;;;;;;4.95;4.03;;;;;;;;;;4841252;29;20056;-83
2022/03/14 05:10:50;;;;;;;8.07;4.55;;;;;;;;;;4842203;29;20060;-83
2022/03/14 05:13:20;;;;;;;5.13;4.32;;;;;;;;;;4844810;29;20132;-82
2022/03/14 05:15:46;;;;;;;4.93;4.35;;;;;;;;;;4855963;29;20462;-82
2022/03/14 05:18:12;;;;;;;5.57;3.97;;;;;;;;;;4857174;29;20041;-79
2022/03/14 05:20:39;;;;;;;4.63;3.47;;;;;;;;;;4858267;29;20147;-80
2022/03/14 05:23:05;;;;;;;4.60;3.90;;;;;;;;;;4845462;29;20088;-80
2022/03/14 05:25:31;;;;;;;4.53;3.70;;;;;;;;;;4842684;29;20102;-80
2022/03/14 05:27:57;;;;;;;4.70;3.67;;;;;;;;;;4843738;29;20192;-81
2022/03/14 05:30:24;;;;;;;4.60;3.33;;;;;;;;;;4826918;29;20559;-80
2022/03/14 05:32:50;;;;;;;4.10;3.53;;;;;;;;;;4859817;29;20392;-80
2022/03/14 05:35:17;;;;;;;6.78;3.63;;;;;;;;;;4837851;29;20136;-82
2022/03/14 05:37:44;;;;;;;5.15;3.67;;;;;;;;;;4843716;29;20127;-81
2022/03/14 05:40:15;;;;;;;5.45;3.35;;;;;;;;;;4842148;29;20068;-78
2022/03/14 05:42:42;;;;;;;3.70;3.40;;;;;;;;;;4839221;29;20131;-82
2022/03/14 05:45:08;;;;;;;4.07;3.65;;;;;;;;;;4835050;29;20049;-82
2022/03/14 05:47:35;;;;;;;3.70;3.40;;;;;;;;;;4834880;29;20124;-84
2022/03/14 05:50:01;;;;;;;4.47;3.67;;;;;;;;;;4851445;29;20350;-82
2022/03/14 05:52:29;;;;;;;5.30;3.65;;;;;;;;;;4840516;29;20436;-82
2022/03/14 05:54:55;;;;;;;4.82;3.80;;;;;;;;;;4856317;29;20057;-83
2022/03/14 05:57:21;;;;;;;4.22;3.53;;;;;;;;;;4839525;29;20370;-82
2022/03/14 05:59:48;;;;;;;4.63;4.13;;;;;;;;;;4829077;29;20116;-82
2022/03/14 06:02:24;;;;;;;5.95;4.45;;;;;;;;;;4854703;29;20113;-82
2022/03/14 06:04:50;;;;;;;4.18;3.65;;;;;;;;;;4834969;29;20080;-81
2022/03/14 06:07:16;;;;;;;4.60;4.00;;;;;;;;;;4834941;29;20509;-85
2022/03/14 06:09:43;;;;;;;4.93;3.78;;;;;;;;;;4842050;29;21387;-85
2022/03/14 06:12:10;;;;;;;4.32;3.60;;;;;;;;;;4857868;29;20460;-83
2022/03/14 06:14:36;;;;;;;4.50;3.72;;;;;;;;;;4844397;29;20064;-83
2022/03/14 06:17:03;;;;;;;4.05;3.60;;;;;;;;;;4824458;29;20088;-83
2022/03/14 06:19:29;;;;;;;4.53;3.42;;;;;;;;;;4858292;29;20052;-82
2022/03/14 06:21:55;;;;;;;4.53;3.80;;;;;;;;;;4840342;29;20053;-84
2022/03/14 06:24:21;;;;;;;4.68;3.75;;;;;;;;;;4857328;29;20045;-83
2022/03/14 06:26:47;;;;;;;4.35;3.95;;;;;;;;;;4840696;29;20101;-84
2022/03/14 06:29:13;;;;;;;4.03;3.63;;;;;;;;;;4840519;29;20048;-83
2022/03/14 06:31:40;;;;;;;5.38;4.32;;;;;;;;;;4840750;29;20096;-83
2022/03/14 06:34:06;;;;;;;4.40;3.30;;;;;;;;;;4854361;29;20496;-83
2022/03/14 06:36:32;;;;;;;4.82;3.83;;;;;;;;;;4841830;29;20453;-83
2022/03/14 06:38:59;;;;;;;4.70;3.80;;;;;;;;;;4856342;29;20338;-82
2022/03/14 06:41:27;;;;;;;4.07;3.50;;;;;;;;;;4840335;29;20112;-82
2022/03/14 06:43:56;;;;;;;4.85;4.13;;;;;;;;;;4838785;29;20055;-84
2022/03/14 06:46:22;;;;;;;4.93;3.65;;;;;;;;;;4839197;29;20116;-82
2022/03/14 06:48:49;;;;;;;4.20;3.80;;;;;;;;;;4854638;29;20192;-86
2022/03/14 06:51:15;;;;;;;5.10;3.53;;;;;;;;;;4828699;29;20401;-82
2022/03/14 06:53:41;;;;;;;4.50;4.10;;;;;;;;;;4858704;29;20473;-86
2022/03/14 06:56:16;;;;;;;6.88;3.40;;;;;;;;;;4858854;29;20061;-88
2022/03/14 06:58:43;;;;;;;4.47;3.85;;;;;;;;;;4841635;29;20048;-83
2022/03/14 07:01:09;;;;;;;5.35;4.30;;;;;;;;;;4832820;29;20421;-83
2022/03/14 07:03:35;;;;;;;5.05;4.47;;;;;;;;;;4840124;29;20497;-83
2022/03/14 07:06:02;;;;;;;5.28;4.20;;;;;;;;;;4848358;29;20109;-82
2022/03/14 07:08:28;;;;;;;6.88;3.92;;;;;;;;;;4833120;29;20096;-82
2022/03/14 07:10:54;;;;;;;4.80;4.20;;;;;;;;;;4828316;29;20041;-84
2022/03/14 07:13:20;;;;;;;5.07;4.10;;;;;;;;;;4839801;29;20074;-83
2022/03/14 07:15:46;;;;;;;4.82;4.20;;;;;;;;;;4827894;29;20049;-83
2022/03/14 07:18:12;;;;;;;5.25;4.28;;;;;;;;;;4841896;29;20500;-83
2022/03/14 07:20:39;;;;;;;5.55;4.35;;;;;;;;;;4828280;29;20069;-84
2022/03/14 07:23:08;;;;;;;4.55;4.03;;;;;;;;;;4809401;29;20091;-83
2022/03/14 07:25:37;;;;;;;5.32;4.20;;;;;;;;;;4842559;29;20081;-83
2022/03/14 07:28:05;;;;;;;5.32;4.43;;;;;;;;;;4824821;29;20091;-83
2022/03/14 07:30:31;;;;;;;6.22;4.30;;;;;;;;;;4823053;29;20052;-83
2022/03/14 07:32:57;;;;;;;5.63;4.50;;;;;;;;;;4838072;29;20042;-82
2022/03/14 07:35:24;;;;;;;6.68;4.22;;;;;;;;;;4824651;29;20064;-82
2022/03/14 07:37:50;;;;;;;5.00;4.47;;;;;;;;;;4825957;29;20046;-82
2022/03/14 07:40:17;;;;;;;5.35;4.82;;;;;;;;;;4839150;29;20375;-83
2022/03/14 07:42:45;;;;;;;5.22;4.65;;;;;;;;;;4822593;29;20133;-82
2022/03/14 07:45:12;;;;;;;5.47;4.82;;;;;;;;;;4835565;29;20045;-83
2022/03/14 07:47:39;;;;;;;6.25;4.63;;;;;;;;;;4839969;29;20052;-83
2022/03/14 07:50:06;;;;;;;5.75;4.93;;;;;;;;;;4822324;29;20061;-83
2022/03/14 07:52:32;;;;;;;6.28;5.20;;;;;;;;;;4824960;29;20052;-83
2022/03/14 07:54:59;;;;;;;6.70;4.57;;;;;;;;;;4855106;29;20062;-82
2022/03/14 07:57:25;;;;;;;5.68;5.15;;;;;;;;;;4823041;29;20064;-83
2022/03/14 07:59:52;;;;;;;8.90;5.22;;;;;;;;;;4809426;29;20057;-85
2022/03/14 08:02:18;;;;;;;6.55;5.18;;;;;;;;;;4839613;29;20049;-82
2022/03/14 08:04:44;;;;;;;6.38;4.90;;;;;;;;;;4840016;29;20170;-82
2022/03/14 08:07:10;;;;;;;6.45;5.25;;;;;;;;;;4821596;29;20358;-82
2022/03/14 08:09:36;;;;;;;6.45;5.63;;;;;;;;;;4828222;29;20080;-84
2022/03/14 08:12:04;;;;;;;8.80;5.95;;;;;;;;;;4842519;29;20133;-85
2022/03/14 08:14:31;;;;;;;8.80;6.50;;;;;;;;;;4829652;29;20069;-82
2022/03/14 08:16:57;;;;;;;8.65;5.80;;;;;;;;;;4829931;29;20493;-88
2022/03/14 08:19:23;;;;;;;8.23;6.20;;;;;;;;;;4827743;29;20057;-88
2022/03/14 08:21:51;;;;;;;7.10;5.82;;;;;;;;;;4832852;29;20128;-89
2022/03/14 08:24:17;;;;;;;6.00;5.38;;;;;;;;;;4830361;29;20449;-88
2022/03/14 08:26:44;;;;;;;6.20;5.57;;;;;;;;;;4829526;29;20045;-88
2022/03/14 08:29:10;;;;;;;7.00;5.82;;;;;;;;;;4826460;29;20277;-83
2022/03/14 08:31:36;;;;;;;6.72;6.00;;;;;;;;;;4811572;29;20053;-80
2022/03/14 08:34:03;;;;;;;8.52;6.90;;;;;;;;;;4828883;29;20076;-80
2022/03/14 08:36:29;;;;;;;6.75;6.03;;;;;;;;;;4810515;29;20122;-80
2022/03/14 08:38:55;;;;;;;6.55;5.85;;;;;;;;;;4828674;29;20517;-82
2022/03/14 08:41:22;;;;;;;6.90;5.82;;;;;;;;;;4827651;29;20076;-81
2022/03/14 08:43:48;;;;;;;9.38;6.28;;;;;;;;;;4819987;29;20130;-84
2022/03/14 08:46:17;;;;;;;8.57;6.10;;;;;;;;;;4826530;29;20545;-83
2022/03/14 08:48:43;;;;;;;8.77;6.38;;;;;;;;;;4825404;29;20046;-82
2022/03/14 08:51:09;;;;;;;8.77;7.25;;;;;;;;;;4819799;29;20049;-81
2022/03/14 08:53:35;;;;;;;13.15;6.97;;;;;;;;;;4825629;29;20406;-82
2022/03/14 08:56:04;;;;;;;8.02;6.88;;;;;;;;;;4840748;29;20057;-83
2022/03/14 08:58:31;;;;;;;11.90;6.88;;;;;;;;;;4830046;29;20060;-86
2022/03/14 09:00:58;;;;;;;12.43;7.65;;;;;;;;;;4820950;29;20049;-83
2022/03/14 09:03:25;;;;;;;10.60;7.85;;;;;;;;;;4827731;29;20093;-82
2022/03/14 09:05:51;;;;;;;9.82;7.65;;;;;;;;;;4835203;29;20057;-85
2022/03/14 09:08:18;;;;;;;10.38;7.68;;;;;;;;;;4811161;29;20049;-84
2022/03/14 09:10:46;;;;;;;10.82;8.93;;;;;;;;;;4823285;29;20485;-85
2022/03/14 09:13:13;;;;;;;13.65;8.95;;;;;;;;;;4824627;29;20379;-83
2022/03/14 09:15:39;;;;;;;9.57;8.07;;;;;;;;;;4811986;29;20052;-78
2022/03/14 09:18:06;;;;;;;9.05;8.07;;;;;;;;;;4828684;29;20136;-83
2022/03/14 09:20:34;;;;;;;10.50;8.63;;;;;;;;;;4814883;29;20083;-83
2022/03/14 09:23:00;;;;;;;10.88;7.97;;;;;;;;;;4855895;29;20057;-82
2022/03/14 09:25:26;;;;;;;9.80;8.35;;;;;;;;;;4829403;29;20068;-83
2022/03/14 09:27:52;;;;;;;10.27;8.73;;;;;;;;;;4843655;29;20548;-81
2022/03/14 09:30:20;;;;;;;11.70;10.32;;;;;;;;;;4857829;29;20096;-83
2022/03/14 09:32:46;;;;;;;16.98;14.10;;;;;;;;;;4842082;29;20053;-83
2022/03/14 09:35:13;;;;;;;24.08;18.90;;;;;;;;;;4826977;29;20055;-82
2022/03/14 09:37:40;;;;;;;27.70;21.15;;;;;;;;;;4860678;29;20061;-82
2022/03/14 09:40:10;;;;;;;29.20;22.40;;;;;;;;;;4855145;29;20048;-82
2022/03/14 09:42:37;;;;;;;38.03;25.48;;;;;;;;;;4853376;29;20049;-82
2022/03/14 09:45:07;;;;;;;34.67;26.63;;;;;;;;;;4851810;29;20061;-81
2022/03/14 09:47:40;;;;;;;40.72;28.17;;;;;;;;;;4860356;29;20409;-78
2022/03/14 09:50:14;;;;;;;42.95;28.48;;;;;;;;;;4844423;29;20052;-82
2022/03/14 09:52:44;;;;;;;44.80;27.20;;;;;;;;;;4844052;29;20446;-82
2022/03/14 09:55:11;;;;;;;44.45;26.63;;;;;;;;;;4844191;29;20050;-82
2022/03/14 09:57:38;;;;;;;43.65;27.25;;;;;;;;;;4861088;29;20614;-82
2022/03/14 10:00:06;;;;;;;40.03;24.98;;;;;;;;;;4827167;29;20092;-82
2022/03/14 10:02:32;;;;;;;31.35;20.00;;;;;;;;;;4854316;29;20061;-82
2022/03/14 10:04:59;;;;;;;28.23;19.48;;;;;;;;;;4845176;29;20060;-82
2022/03/14 10:07:25;;;;;;;26.30;18.40;;;;;;;;;;4845861;29;20044;-81
2022/03/14 10:09:51;;;;;;;25.67;17.63;;;;;;;;;;4845593;29;20045;-82
2022/03/14 10:12:18;;;;;;;21.33;15.45;;;;;;;;;;4830179;29;20108;-82
2022/03/14 10:14:46;;;;;;;23.08;15.45;;;;;;;;;;4845419;29;20048;-83
2022/03/14 10:17:12;;;;;;;23.38;14.95;;;;;;;;;;4845040;29;20049;-80
2022/03/14 10:19:38;;;;;;;25.15;13.52;;;;;;;;;;4836784;29;20049;-82
2022/03/14 10:22:15;;;;;;;21.40;13.85;;;;;;;;;;4828972;29;20106;-82
2022/03/14 10:24:42;;;;;;;23.38;13.55;;;;;;;;;;4858563;29;20443;-82
2022/03/14 10:27:09;;;;;;;29.48;14.00;;;;;;;;;;4842840;29;20053;-81
2022/03/14 10:29:36;;;;;;;26.98;13.10;;;;;;;;;;4838626;29;20123;-83
2022/03/14 10:32:05;;;;;;;23.52;12.75;;;;;;;;;;4860901;29;20079;-82
2022/03/14 10:34:31;;;;;;;25.13;10.90;;;;;;;;;;4826315;29;20053;-82
2022/03/14 10:36:57;;;;;;;22.45;11.23;;;;;;;;;;4834454;29;20231;-81
2022/03/14 10:39:31;;;;;;;20.20;10.25;;;;;;;;;;4843996;29;20064;-83
2022/03/14 10:42:03;;;;;;;23.17;11.07;;;;;;;;;;4845255;29;20060;-83
2022/03/14 10:44:30;;;;;;;18.45;9.98;;;;;;;;;;4860315;29;20059;-80
2022/03/14 10:47:05;;;;;;;23.05;9.95;;;;;;;;;;4839706;29;20041;-80
2022/03/14 10:49:32;;;;;;;22.33;10.18;;;;;;;;;;4857028;29;20045;-79
2022/03/14 10:51:59;;;;;;;22.98;9.65;;;;;;;;;;4859520;29;20059;-84
2022/03/14 10:54:26;;;;;;;22.38;10.40;;;;;;;;;;4827912;29;20053;-83
2022/03/14 10:57:08;;;;;;;21.73;10.20;;;;;;;;;;4835455;29;20044;-81
2022/03/14 10:59:42;;;;;;;20.10;10.63;;;;;;;;;;4845211;29;20076;-81
2022/03/14 11:02:09;;;;;;;23.23;9.90;;;;;;;;;;4857506;29;20052;-81
2022/03/14 11:04:40;;;;;;;22.10;9.48;;;;;;;;;;4845424;29;20493;-82
2022/03/14 11:07:06;;;;;;;19.92;9.02;;;;;;;;;;4844298;29;20121;-82
2022/03/14 11:09:46;;;;;;;24.23;10.73;;;;;;;;;;4840702;29;20060;-81
2022/03/14 11:12:15;;;;;;;23.85;9.05;;;;;;;;;;4844547;29;20049;-82
2022/03/14 11:14:41;;;;;;;19.17;8.13;;;;;;;;;;4858163;29;20091;-82
2022/03/14 11:17:11;;;;;;;19.75;8.15;;;;;;;;;;4843162;29;20105;-84
2022/03/14 11:19:38;;;;;;;27.25;8.73;;;;;;;;;;4861495;29;21153;-83
2022/03/14 11:22:07;;;;;;;17.90;7.65;;;;;;;;;;4860358;29;20075;-87
2022/03/14 11:24:33;;;;;;;15.60;7.63;;;;;;;;;;4845561;29;20048;-88
2022/03/14 11:26:59;;;;;;;20.45;7.35;;;;;;;;;;4857199;29;20509;-84
2022/03/14 11:29:28;;;;;;;11.52;7.32;;;;;;;;;;4844448;29;20128;-86
2022/03/14 11:31:55;;;;;;;18.45;8.65;;;;;;;;;;4837764;29;20115;-83
2022/03/14 11:34:26;;;;;;;12.88;7.65;;;;;;;;;;4858305;29;20045;-81
2022/03/14 11:36:53;;;;;;;17.90;9.52;;;;;;;;;;4841429;29;20078;-83
2022/03/14 11:39:20;;;;;;;22.27;9.88;;;;;;;;;;4841601;29;20132;-82
2022/03/14 11:41:46;;;;;;;18.73;10.60;;;;;;;;;;4854448;29;20045;-79
2022/03/14 11:44:13;;;;;;;21.00;11.15;;;;;;;;;;4857600;29;20053;-81
2022/03/14 11:46:40;;;;;;;20.75;11.75;;;;;;;;;;4858478;29;20049;-80
2022/03/14 11:49:16;;;;;;;23.17;12.35;;;;;;;;;;4845026;29;20529;-81
2022/03/14 11:51:42;;;;;;;21.73;11.50;;;;;;;;;;4840753;29;20112;-81
2022/03/14 11:54:13;;;;;;;25.23;11.13;;;;;;;;;;4841536;29;20081;-81
2022/03/14 11:56:51;;;;;;;23.33;10.90;;;;;;;;;;4856521;29;20052;-81
2022/03/14 11:59:25;;;;;;;17.98;10.80;;;;;;;;;;4841995;29;20445;-81
2022/03/14 12:01:51;;;;;;;30.25;11.05;;;;;;;;;;4845536;29;20454;-83
2022/03/14 12:04:32;;;;;;;25.02;10.98;;;;;;;;;;4846794;29;20048;-82
2022/03/14 12:07:17;;;;;;;21.52;10.88;;;;;;;;;;4841276;29;20073;-80
2022/03/14 12:09:45;;;;;;;26.00;12.27;;;;;;;;;;4865530;29;20052;-83
2022/03/14 12:12:17;;;;;;;23.30;11.55;;;;;;;;;;4846764;29;20053;-82
2022/03/14 12:14:47;;;;;;;27.90;12.57;;;;;;;;;;4859209;29;20493;-83
2022/03/14 12:17:13;;;;;;;26.45;13.25;;;;;;;;;;4846745;29;20477;-82
2022/03/14 12:19:47;;;;;;;26.70;13.35;;;;;;;;;;4846978;29;20064;-84
2022/03/14 12:22:16;;;;;;;29.85;13.43;;;;;;;;;;4825602;29;20409;-83
2022/03/14 12:24:44;;;;;;;31.02;13.30;;;;;;;;;;4840657;29;20050;-80
2022/03/14 12:27:14;;;;;;;29.45;14.05;;;;;;;;;;4825628;29;20046;-81
2022/03/14 12:29:40;;;;;;;33.30;13.52;;;;;;;;;;4844110;29;20101;-84
2022/03/14 12:32:25;;;;;;;29.25;13.85;;;;;;;;;;4843181;29;20098;-83
2022/03/14 12:35:08;;;;;;;29.42;14.07;;;;;;;;;;4842882;29;20476;-85
2022/03/14 12:37:52;;;;;;;27.92;12.43;;;;;;;;;;4828454;29;20072;-84
2022/03/14 12:40:21;;;;;;;26.35;12.73;;;;;;;;;;4827450;29;20060;-82
2022/03/14 12:42:48;;;;;;;25.77;13.60;;;;;;;;;;4826546;29;20494;-77
2022/03/14 12:45:24;;;;;;;31.13;13.13;;;;;;;;;;4824331;29;20050;-77
2022/03/14 12:47:57;;;;;;;25.80;13.30;;;;;;;;;;4843290;29;20435;-79
2022/03/14 12:50:42;;;;;;;29.00;13.15;;;;;;;;;;4835415;29;20045;-77
2022/03/14 12:53:09;;;;;;;22.95;11.75;;;;;;;;;;4845110;29;20053;-78
2022/03/14 12:55:35;;;;;;;24.50;12.55;;;;;;;;;;4828273;29;20072;-79
2022/03/14 12:58:01;;;;;;;20.10;11.88;;;;;;;;;;4828728;29;20053;-80
2022/03/14 13:00:27;;;;;;;28.30;11.55;;;;;;;;;;4826560;29;20060;-80
2022/03/14 13:02:54;;;;;;;26.90;11.32;;;;;;;;;;4813931;29;20060;-86
2022/03/14 13:05:20;;;;;;;22.08;10.98;;;;;;;;;;4819528;29;20053;-85
2022/03/14 13:08:03;;;;;;;24.63;12.05;;;;;;;;;;4825528;29;20056;-82
2022/03/14 13:10:39;;;;;;;22.33;10.90;;;;;;;;;;4817211;29;20058;-81
2022/03/14 13:13:08;;;;;;;30.60;11.63;;;;;;;;;;4836189;29;20084;-84
2022/03/14 13:15:36;;;;;;;22.92;10.60;;;;;;;;;;4838187;29;20072;-88
2022/03/14 13:18:03;;;;;;;29.58;12.73;;;;;;;;;;4825325;29;20414;-88
2022/03/14 13:20:29;;;;;;;19.00;9.35;;;;;;;;;;4824404;29;20061;-83
2022/03/14 13:22:57;;;;;;;19.58;9.27;;;;;;;;;;4831333;29;20061;-86
2022/03/14 13:25:33;;;;;;;23.55;9.70;;;;;;;;;;4828355;29;20054;-88
2022/03/14 13:28:00;;;;;;;17.63;9.55;;;;;;;;;;4844286;29;20056;-87
2022/03/14 13:30:39;;;;;;;17.92;7.60;;;;;;;;;;4813249;29;20081;-87
2022/03/14 13:33:26;;;;;;;24.48;9.32;;;;;;;;;;4825877;29;20137;-86
2022/03/14 13:36:03;;;;;;;14.85;8.02;;;;;;;;;;4838522;29;20607;-78
2022/03/14 13:38:40;;;;;;;19.40;9.70;;;;;;;;;;4842797;29;20068;-82
2022/03/14 13:41:10;;;;;;;22.58;8.45;;;;;;;;;;4814269;29;20061;-82
2022/03/14 13:43:37;;;;;;;26.58;17.05;;;;;;;;;;4831756;29;20064;-86
2022/03/14 13:46:23;;;;;;;20.55;9.50;;;;;;;;;;4840905;29;20146;-85
2022/03/14 13:48:53;;;;;;;18.30;8.40;;;;;;;;;;4826125;29;20140;-85
2022/03/14 13:51:26;;;;;;;16.85;8.15;;;;;;;;;;4833399;29;20061;-85
2022/03/14 13:53:52;;;;;;;21.10;7.50;;;;;;;;;;4826997;29;20092;-86
2022/03/14 13:56:18;;;;;;;26.95;8.93;;;;;;;;;;4829349;29;20087;-86
2022/03/14 13:58:55;;;;;;;16.42;6.80;;;;;;;;;;4828604;29;20049;-85
2022/03/14 14:01:39;;;;;;;18.90;7.28;;;;;;;;;;4828314;29;20064;-84
2022/03/14 14:04:12;;;;;;;16.70;6.70;;;;;;;;;;4827247;29;20114;-86
2022/03/14 14:06:45;;;;;;;12.73;6.53;;;;;;;;;;4825708;29;20061;-85
2022/03/14 14:09:25;;;;;;;16.65;7.72;;;;;;;;;;4824961;29;20310;-89
2022/03/14 14:11:57;;;;;;;18.63;7.05;;;;;;;;;;4842008;29;20049;-86
2022/03/14 14:14:27;;;;;;;15.52;7.10;;;;;;;;;;4828298;29;20041;-86
2022/03/14 14:16:53;;;;;;;17.73;6.80;;;;;;;;;;4824203;29;20054;-86
2022/03/14 14:19:22;;;;;;;17.75;7.40;;;;;;;;;;4829735;29;20053;-86
2022/03/14 14:21:55;;;;;;;17.30;6.30;;;;;;;;;;4847932;29;20056;-87
2022/03/14 14:24:24;;;;;;;13.93;6.07;;;;;;;;;;4855711;29;20508;-86
2022/03/14 14:26:51;;;;;;;19.80;5.40;;;;;;;;;;4846352;29;20045;-86
2022/03/14 14:29:36;;;;;;;16.75;5.00;;;;;;;;;;4842842;29;20089;-87
2022/03/14 14:32:15;;;;;;;17.33;4.85;;;;;;;;;;4841225;29;20054;-87